createdAt,value
2016-07-11T00:00:25.782Z,68.94
2016-07-11T00:01:25.806Z,69.9
2016-07-11T00:02:25.839Z,68.65
2016-07-11T00:03:25.865Z,69.62
2016-07-11T00:04:25.895Z,69.49
2016-07-11T00:05:40.836Z,69.1
2016-07-11T00:06:25.947Z,68.71
2016-07-11T00:08:26.009Z,68.43
2016-07-11T00:09:26.032Z,68.23
2016-07-11T00:10:26.066Z,69.1
2016-07-11T00:12:26.125Z,69.39
2016-07-11T00:13:26.150Z,70.06
2016-07-11T00:14:26.188Z,69.2
2016-07-11T00:15:26.206Z,69.2
2016-07-11T00:16:26.230Z,69.58
2016-07-11T00:17:26.264Z,69.87
2016-07-11T00:18:26.287Z,70.16
2016-07-11T00:19:26.323Z,69.68
2016-07-11T00:20:26.346Z,69.87
2016-07-11T00:21:41.291Z,69.87
2016-07-11T00:22:26.401Z,70.16
2016-07-11T00:23:26.429Z,70.26
2016-07-11T00:24:26.458Z,70.45
2016-07-11T00:25:26.491Z,71
2016-07-11T00:26:26.520Z,69.97
2016-07-11T00:27:26.546Z,70.32
2016-07-11T00:28:26.577Z,70.61
2016-07-11T00:29:26.603Z,71.28
2016-07-11T00:30:26.631Z,70.9
2016-07-11T00:31:26.661Z,71
2016-07-11T00:32:26.686Z,70.22
2016-07-11T00:33:26.719Z,69.93
2016-07-11T00:34:26.749Z,70.32
2016-07-11T00:35:26.776Z,71
2016-07-11T00:36:41.715Z,70.42
2016-07-11T00:37:26.828Z,70.9
2016-07-11T00:40:26.919Z,71.38
2016-07-11T00:41:26.944Z,72.34
2016-07-11T00:42:26.973Z,71.86
2016-07-11T00:43:27.003Z,71.67
2016-07-11T00:44:27.030Z,72.06
2016-07-11T00:45:27.057Z,72.44
2016-07-11T00:46:27.081Z,71.77
2016-07-11T00:47:27.111Z,71.67
2016-07-11T00:48:27.140Z,71.67
2016-07-11T00:49:27.177Z,72.15
2016-07-11T00:50:27.195Z,72.15
2016-07-11T00:51:27.223Z,73.41
2016-07-11T00:52:27.257Z,73.31
2016-07-11T00:53:27.281Z,73.18
2016-07-11T00:55:27.351Z,72.79
2016-07-11T00:56:27.362Z,72.02
2016-07-11T00:57:27.399Z,72.79
2016-07-11T00:58:27.421Z,73.27
2016-07-11T00:59:27.454Z,73.37
2016-07-11T01:00:27.482Z,73.69
2016-07-11T01:01:27.509Z,72.99
2016-07-11T01:02:27.534Z,73.18
2016-07-11T01:03:27.563Z,72.99
2016-07-11T01:04:27.595Z,73.37
2016-07-11T01:05:27.619Z,72.5
2016-07-11T01:06:28.262Z,73.21
2016-07-11T01:07:27.675Z,73.41
2016-07-11T01:08:42.620Z,72.34
2016-07-11T01:09:27.734Z,72.12
2016-07-11T01:10:27.762Z,72.69
2016-07-11T01:11:27.788Z,72.63
2016-07-11T01:12:27.819Z,72.15
2016-07-11T01:13:27.853Z,71.83
2016-07-11T01:15:27.909Z,72.63
2016-07-11T01:16:27.933Z,72.34
2016-07-11T01:17:27.957Z,72.15
2016-07-11T01:18:27.984Z,72.06
2016-07-11T01:19:28.019Z,72.31
2016-07-11T01:20:28.043Z,72.12
2016-07-11T01:21:28.073Z,72.34
2016-07-11T01:22:28.098Z,72.21
2016-07-11T01:23:28.133Z,71.96
2016-07-11T01:24:43.070Z,72.69
2016-07-11T01:25:28.184Z,73.02
2016-07-11T01:26:28.213Z,72.6
2016-07-11T01:28:28.274Z,73.37
2016-07-11T01:29:28.302Z,72.69
2016-07-11T01:30:28.324Z,73.02
2016-07-11T01:31:28.359Z,73.02
2016-07-11T01:32:28.384Z,72.73
2016-07-11T01:33:28.412Z,73.27
2016-07-11T01:34:28.440Z,73.66
2016-07-11T01:35:28.470Z,73.37
2016-07-11T01:36:28.498Z,73.47
2016-07-11T01:37:28.523Z,73.66
2016-07-11T01:38:28.554Z,74.72
2016-07-11T01:39:28.577Z,74.52
2016-07-11T01:40:43.523Z,73.75
2016-07-11T01:41:28.634Z,73.37
2016-07-11T01:43:28.690Z,75.1
2016-07-11T01:44:28.722Z,75.01
2016-07-11T01:45:28.750Z,74.82
2016-07-11T01:46:28.777Z,74.14
2016-07-11T01:48:28.830Z,74.2
2016-07-11T01:49:28.863Z,74.2
2016-07-11T01:50:28.887Z,74.1
2016-07-11T01:51:28.914Z,74.49
2016-07-11T01:52:28.946Z,74.1
2016-07-11T01:53:28.973Z,74.4
2016-07-11T01:54:29.009Z,74.68
2016-07-11T01:55:29.033Z,74.2
2016-07-11T01:56:43.971Z,74.2
2016-07-11T01:57:29.089Z,74.78
2016-07-11T01:58:29.115Z,75.26
2016-07-11T02:00:29.171Z,74.01
2016-07-11T02:01:29.193Z,74.58
2016-07-11T02:02:29.226Z,74.49
2016-07-11T02:03:29.252Z,74.97
2016-07-11T02:04:29.278Z,74.78
2016-07-11T02:05:29.307Z,75.36
2016-07-11T02:06:29.340Z,75.07
2016-07-11T02:07:29.367Z,75.07
2016-07-11T02:08:29.393Z,75.07
2016-07-11T02:09:29.418Z,75.16
2016-07-11T02:10:29.451Z,75.74
2016-07-11T02:11:44.391Z,75.26
2016-07-11T02:12:29.505Z,75.93
2016-07-11T02:13:29.534Z,75.36
2016-07-11T02:14:29.564Z,75.74
2016-07-11T02:15:29.591Z,76.42
2016-07-11T02:16:29.622Z,76.23
2016-07-11T02:17:29.641Z,76.51
2016-07-11T02:18:29.677Z,76.13
2016-07-11T02:19:29.702Z,76.13
2016-07-11T02:20:29.728Z,77.09
2016-07-11T02:21:29.760Z,77.09
2016-07-11T02:22:29.790Z,76.61
2016-07-11T02:23:29.818Z,76.96
2016-07-11T02:24:29.854Z,76.8
2016-07-11T02:25:29.874Z,76.9
2016-07-11T02:26:29.900Z,76.48
2016-07-11T02:27:29.924Z,76.9
2016-07-11T02:28:29.957Z,77
2016-07-11T02:29:29.980Z,77.09
2016-07-11T02:31:30.043Z,76.61
2016-07-11T02:32:30.067Z,76.8
2016-07-11T02:33:30.090Z,77.06
2016-07-11T02:34:30.123Z,77.76
2016-07-11T02:35:30.149Z,77.19
2016-07-11T02:36:30.176Z,77.28
2016-07-11T02:37:30.207Z,76.8
2016-07-11T02:38:30.230Z,77.09
2016-07-11T02:39:30.261Z,77.48
2016-07-11T02:40:30.286Z,77.63
2016-07-11T02:41:30.314Z,77.15
2016-07-11T02:42:30.344Z,77.58
2016-07-11T02:43:45.287Z,77.25
2016-07-11T02:44:30.400Z,78.4
2016-07-11T02:45:30.426Z,78.02
2016-07-11T02:46:30.453Z,77.15
2016-07-11T02:47:30.482Z,77.06
2016-07-11T02:48:30.509Z,77.73
2016-07-11T02:49:30.543Z,78.02
2016-07-11T02:50:30.569Z,77.73
2016-07-11T02:51:30.599Z,77.34
2016-07-11T02:52:30.623Z,77.53
2016-07-11T02:53:30.648Z,77.83
2016-07-11T02:54:30.678Z,77.34
2016-07-11T02:55:30.702Z,78.59
2016-07-11T02:56:30.734Z,78.5
2016-07-11T02:57:30.763Z,78.02
2016-07-11T02:58:30.793Z,77.53
2016-07-11T02:59:45.734Z,77.73
2016-07-11T03:00:30.847Z,77.53
2016-07-11T03:01:30.873Z,77.92
2016-07-11T03:02:30.911Z,77.76
2016-07-11T03:03:30.926Z,77.73
2016-07-11T03:04:30.957Z,77.58
2016-07-11T03:05:30.986Z,77.58
2016-07-11T03:06:31.010Z,77.53
2016-07-11T03:07:31.038Z,78.06
2016-07-11T03:08:31.076Z,78.15
2016-07-11T03:09:31.099Z,77.76
2016-07-11T03:10:31.129Z,77.25
2016-07-11T03:11:31.148Z,77.38
2016-07-11T03:12:31.182Z,77.76
2016-07-11T03:13:31.203Z,77.76
2016-07-11T03:14:31.241Z,77.67
2016-07-11T03:15:46.175Z,77.48
2016-07-11T03:16:31.287Z,77.96
2016-07-11T03:17:31.318Z,77.96
2016-07-11T03:19:31.377Z,77.76
2016-07-11T03:21:31.431Z,77.76
2016-07-11T03:22:31.457Z,77.86
2016-07-11T03:23:32.093Z,77.28
2016-07-11T03:24:31.511Z,77.09
2016-07-11T03:25:31.538Z,77.48
2016-07-11T03:26:31.568Z,77.19
2016-07-11T03:27:31.599Z,77.09
2016-07-11T03:28:31.622Z,76.8
2016-07-11T03:29:31.656Z,77.09
2016-07-11T03:30:31.681Z,76.9
2016-07-11T03:31:46.620Z,76.9
2016-07-11T03:32:31.744Z,76.03
2016-07-11T03:33:31.761Z,76.42
2016-07-11T03:34:31.788Z,76.03
2016-07-11T03:35:31.824Z,76.9
2016-07-11T03:36:31.845Z,76.23
2016-07-11T03:37:31.877Z,75.55
2016-07-11T03:38:31.906Z,76.32
2016-07-11T03:39:31.928Z,76.55
2016-07-11T03:40:31.960Z,75.78
2016-07-11T03:41:31.987Z,75.01
2016-07-11T03:42:32.013Z,76.07
2016-07-11T03:43:32.060Z,75.3
2016-07-11T03:44:32.068Z,75.2
2016-07-11T03:45:32.099Z,75.01
2016-07-11T03:46:47.042Z,74.82
2016-07-11T03:47:32.158Z,75.14
2016-07-11T03:49:32.213Z,75.01
2016-07-11T03:50:32.237Z,74.37
2016-07-11T03:51:32.265Z,73.6
2016-07-11T03:52:32.302Z,73.6
2016-07-11T03:53:32.325Z,73.79
2016-07-11T03:54:32.359Z,74.57
2016-07-11T03:55:32.380Z,73.99
2016-07-11T03:56:32.405Z,73.99
2016-07-11T03:57:32.432Z,73.41
2016-07-11T03:58:32.460Z,73.5
2016-07-11T03:59:32.492Z,73.5
2016-07-11T04:00:32.514Z,74.37
2016-07-11T04:01:32.545Z,74.27
2016-07-11T04:02:32.570Z,74.47
2016-07-11T04:03:32.605Z,73.69
2016-07-11T04:04:32.631Z,73.41
2016-07-11T04:05:32.658Z,73.21
2016-07-11T04:06:32.684Z,73.31
2016-07-11T04:07:32.710Z,74.41
2016-07-11T04:08:32.742Z,73.99
2016-07-11T04:09:32.772Z,73.6
2016-07-11T04:10:32.801Z,73.41
2016-07-11T04:11:32.823Z,73.44
2016-07-11T04:12:32.858Z,73.44
2016-07-11T04:13:32.880Z,73.63
2016-07-11T04:14:32.908Z,72.86
2016-07-11T04:15:32.939Z,73.06
2016-07-11T04:16:32.969Z,72.96
2016-07-11T04:17:32.995Z,73.25
2016-07-11T04:18:47.938Z,72.77
2016-07-11T04:22:33.136Z,73.44
2016-07-11T04:23:33.168Z,73.35
2016-07-11T04:24:33.190Z,72.22
2016-07-11T04:25:33.218Z,72.03
2016-07-11T04:26:33.248Z,72.42
2016-07-11T04:27:33.274Z,72.03
2016-07-11T04:28:33.309Z,71.36
2016-07-11T04:29:33.332Z,71.55
2016-07-11T04:30:33.363Z,70.68
2016-07-11T04:31:33.402Z,70.2
2016-07-11T04:32:33.419Z,70.72
2016-07-11T04:33:33.451Z,70.04
2016-07-11T04:34:48.389Z,69.84
2016-07-11T04:35:33.501Z,70.14
2016-07-11T04:36:33.531Z,70.62
2016-07-11T04:37:33.559Z,69.65
2016-07-11T04:38:33.586Z,68.91
2016-07-11T04:39:33.616Z,69.4
2016-07-11T04:40:33.645Z,68.33
2016-07-11T04:41:33.670Z,67.75
2016-07-11T04:42:33.698Z,67.59
2016-07-11T04:43:33.735Z,66.63
2016-07-11T04:44:33.763Z,65.88
2016-07-11T04:45:33.790Z,65.4
2016-07-11T04:46:33.815Z,63.49
2016-07-11T04:47:33.848Z,62.27
2016-07-11T04:48:33.874Z,62.01
2016-07-11T04:49:33.902Z,62.3
2016-07-11T04:50:48.846Z,60.97
2016-07-11T04:51:33.965Z,59.74
2016-07-11T04:52:33.991Z,58.41
2016-07-11T04:53:34.029Z,56.7
2016-07-11T04:54:34.051Z,55.29
2016-07-11T04:55:34.083Z,53.77
2016-07-11T04:57:34.140Z,53.89
2016-07-11T04:58:34.171Z,53.3
2016-07-11T04:59:34.198Z,52.43
2016-07-11T05:00:34.231Z,52.82
2016-07-11T05:01:34.260Z,53.01
2016-07-11T05:02:34.292Z,53.3
2016-07-11T05:03:34.324Z,53.69
2016-07-11T05:04:34.356Z,53.5
2016-07-11T05:05:34.380Z,54.15
2016-07-11T05:06:49.328Z,54.15
2016-07-11T05:07:34.443Z,55.1
2016-07-11T05:08:34.476Z,54.8
2016-07-11T05:09:34.503Z,54.8
2016-07-11T05:10:34.531Z,55.19
2016-07-11T05:11:34.567Z,55.85
2016-07-11T05:12:34.596Z,55.17
2016-07-11T05:14:34.657Z,55.63
2016-07-11T05:15:34.687Z,55.33
2016-07-11T05:16:34.712Z,56.79
2016-07-11T05:17:34.742Z,56.98
2016-07-11T05:18:34.778Z,57.67
2016-07-11T05:19:34.807Z,56.82
2016-07-11T05:20:34.845Z,55.19
2016-07-11T05:21:49.781Z,54.13
2016-07-11T05:22:34.897Z,53.5
2016-07-11T05:24:34.959Z,50.53
2016-07-11T05:25:34.988Z,48.44
2016-07-11T05:26:35.020Z,47.19
2016-07-11T05:27:35.068Z,46.63
2016-07-11T05:28:35.091Z,46.78
2016-07-11T05:29:35.115Z,46
2016-07-11T05:30:36.253Z,46.66
2016-07-11T05:31:35.189Z,47.51
2016-07-11T05:32:35.206Z,46.92
2016-07-11T05:33:35.235Z,45.65
2016-07-11T05:34:35.271Z,45.7
2016-07-11T05:35:35.300Z,46.19
2016-07-11T05:36:35.335Z,45.48
2016-07-11T05:37:35.362Z,45.09
2016-07-11T05:38:35.391Z,44.73
2016-07-11T05:40:35.461Z,42.36
2016-07-11T05:43:35.560Z,39.8
2016-07-11T05:45:35.618Z,37.7
2016-07-11T05:46:35.651Z,37.11
2016-07-11T05:47:35.686Z,36.05
2016-07-11T05:48:35.720Z,36.63
2016-07-11T05:49:35.752Z,37.42
2016-07-11T05:50:35.786Z,38.19
2016-07-11T05:51:35.818Z,37.46
2016-07-11T05:52:35.851Z,38.35
2016-07-11T05:53:50.797Z,35.72
2016-07-11T05:54:35.919Z,35.28
2016-07-11T05:55:35.952Z,35.39
2016-07-11T05:56:35.982Z,32.97
2016-07-11T05:57:36.017Z,32.57
2016-07-11T05:58:36.049Z,33.08
2016-07-11T05:59:36.087Z,32.69
2016-07-11T06:00:36.118Z,31.82
2016-07-11T06:01:36.153Z,31.24
2016-07-11T06:02:36.186Z,29.41
2016-07-11T06:03:36.219Z,29.05
2016-07-11T06:04:36.250Z,28.66
2016-07-11T06:05:36.302Z,28.85
2016-07-11T06:06:36.328Z,28.96
2016-07-11T06:07:36.361Z,29.16
2016-07-11T06:08:36.392Z,28.74
2016-07-11T06:09:51.364Z,28.07
2016-07-11T06:10:36.464Z,28.78
2016-07-11T06:13:36.576Z,28.75
2016-07-11T06:14:36.607Z,28.74
2016-07-11T06:16:36.683Z,28.17
2016-07-11T06:17:36.713Z,27.58
2016-07-11T06:18:36.760Z,28.3
2016-07-11T06:19:36.791Z,27.97
2016-07-11T06:20:36.830Z,27.89
2016-07-11T06:21:36.863Z,27.98
2016-07-11T06:22:36.899Z,27.49
2016-07-11T06:23:36.937Z,27.7
2016-07-11T06:24:36.969Z,27.7
2016-07-11T06:25:51.923Z,28.65
2016-07-11T06:27:37.080Z,28.18
2016-07-11T06:29:37.150Z,26.73
2016-07-11T06:30:37.185Z,26.33
2016-07-11T06:31:37.223Z,27.5
2016-07-11T06:32:37.261Z,26.7
2016-07-11T06:33:37.300Z,28.08
2016-07-11T06:34:37.336Z,27.79
2016-07-11T06:35:37.372Z,28.65
2016-07-11T06:36:37.407Z,28.65
2016-07-11T06:37:37.444Z,28.35
2016-07-11T06:38:37.482Z,28.85
2016-07-11T06:39:37.523Z,28.07
2016-07-11T06:40:37.569Z,27.79
2016-07-11T06:41:52.507Z,27.98
2016-07-11T06:43:37.664Z,26.51
2016-07-11T06:44:37.705Z,27.5
2016-07-11T06:45:37.735Z,28.56
2016-07-11T06:46:37.773Z,27.77
2016-07-11T06:47:37.807Z,27.89
2016-07-11T06:48:37.849Z,28.08
2016-07-11T06:49:37.883Z,28.74
2016-07-11T06:50:37.923Z,29.52
2016-07-11T06:51:37.955Z,28.14
2016-07-11T06:52:37.994Z,27.29
2016-07-11T06:53:38.031Z,27.62
2016-07-11T06:54:38.074Z,26.93
2016-07-11T06:55:38.108Z,26.95
2016-07-11T06:56:53.056Z,27.03
2016-07-11T06:57:38.179Z,26.43
2016-07-11T06:58:38.213Z,26.53
2016-07-11T06:59:38.250Z,26.25
2016-07-11T07:00:38.288Z,26.73
2016-07-11T07:01:38.332Z,27.22
2016-07-11T07:03:38.403Z,26.93
2016-07-11T07:04:38.453Z,26.82
2016-07-11T07:05:38.475Z,27.72
2016-07-11T07:06:38.513Z,27.8
2016-07-11T07:07:38.554Z,27.6
2016-07-11T07:08:38.588Z,28.67
2016-07-11T07:09:38.622Z,29.05
2016-07-11T07:10:38.656Z,30.02
2016-07-11T07:11:38.698Z,30.76
2016-07-11T07:12:39.347Z,31.26
2016-07-11T07:13:38.771Z,31.42
2016-07-11T07:14:38.800Z,30.85
2016-07-11T07:15:38.839Z,31.24
2016-07-11T07:16:38.875Z,31.14
2016-07-11T07:17:38.915Z,31.72
2016-07-11T07:18:38.950Z,31.23
2016-07-11T07:19:38.986Z,31.24
2016-07-11T07:20:39.019Z,31.34
2016-07-11T07:21:39.056Z,30.94
2016-07-11T07:22:39.095Z,30.76
2016-07-11T07:23:39.128Z,30.96
2016-07-11T07:24:39.162Z,30.96
2016-07-11T07:25:39.209Z,30.89
2016-07-11T07:26:39.240Z,30.57
2016-07-11T07:27:39.277Z,30.88
2016-07-11T07:28:54.223Z,30.48
2016-07-11T07:29:39.344Z,30.21
2016-07-11T07:30:39.378Z,30.02
2016-07-11T07:31:39.412Z,30.11
2016-07-11T07:32:39.449Z,30.41
2016-07-11T07:33:39.486Z,30.6
2016-07-11T07:34:39.538Z,31.07
2016-07-11T07:35:39.558Z,31.83
2016-07-11T07:36:39.595Z,33.1
2016-07-11T07:37:39.631Z,32.79
2016-07-11T07:38:39.663Z,32.01
2016-07-11T07:39:39.705Z,32.62
2016-07-11T07:40:39.737Z,33.46
2016-07-11T07:41:39.781Z,34.03
2016-07-11T07:42:39.808Z,32.59
2016-07-11T07:43:39.841Z,32.11
2016-07-11T07:44:54.794Z,33.51
2016-07-11T07:47:39.983Z,34.92
2016-07-11T07:48:40.021Z,35.02
2016-07-11T07:49:40.053Z,34.33
2016-07-11T07:50:40.093Z,34.53
2016-07-11T07:51:40.124Z,35.51
2016-07-11T07:52:40.163Z,35.41
2016-07-11T07:53:40.195Z,35.57
2016-07-11T07:54:40.225Z,35.87
2016-07-11T07:55:40.264Z,35.67
2016-07-11T07:56:40.303Z,36.16
2016-07-11T07:57:40.326Z,36.83
2016-07-11T07:58:40.366Z,36.16
2016-07-11T07:59:40.397Z,36.65
2016-07-11T08:00:55.349Z,36.46
2016-07-11T08:01:40.464Z,36.55
2016-07-11T08:02:40.508Z,37.54
2016-07-11T08:03:40.537Z,38.27
2016-07-11T08:04:40.570Z,38.56
2016-07-11T08:05:40.602Z,37.58
2016-07-11T08:06:40.639Z,38.96
2016-07-11T08:08:40.710Z,37.5
2016-07-11T08:09:40.737Z,37.21
2016-07-11T08:10:40.775Z,37.52
2016-07-11T08:11:40.803Z,37.13
2016-07-11T08:12:40.842Z,37.15
2016-07-11T08:13:40.869Z,37.6
2016-07-11T08:14:40.907Z,37.5
2016-07-11T08:15:40.937Z,36.54
2016-07-11T08:16:55.891Z,36.16
2016-07-11T08:17:41.012Z,36.08
2016-07-11T08:18:41.038Z,35.21
2016-07-11T08:19:41.076Z,35.61
2016-07-11T08:20:41.113Z,36.08
2016-07-11T08:21:41.142Z,35.78
2016-07-11T08:22:41.180Z,36.18
2016-07-11T08:24:41.246Z,36.07
2016-07-11T08:25:41.278Z,36.85
2016-07-11T08:26:41.310Z,36.75
2016-07-11T08:27:41.347Z,35.78
2016-07-11T08:28:41.377Z,36.18
2016-07-11T08:29:41.411Z,36.75
2016-07-11T08:30:41.445Z,35.67
2016-07-11T08:31:56.398Z,36.18
2016-07-11T08:32:41.511Z,36.85
2016-07-11T08:34:41.589Z,36.83
2016-07-11T08:35:41.615Z,36.07
2016-07-11T08:36:41.648Z,36.54
2016-07-11T08:37:41.686Z,36.74
2016-07-11T08:38:41.718Z,36.85
2016-07-11T08:39:41.750Z,35.87
2016-07-11T08:40:41.779Z,35.67
2016-07-11T08:41:41.813Z,36.54
2016-07-11T08:42:41.849Z,36.62
2016-07-11T08:43:41.885Z,36.62
2016-07-11T08:44:41.919Z,36.91
2016-07-11T08:45:41.956Z,37.78
2016-07-11T08:46:41.992Z,37.29
2016-07-11T08:47:42.020Z,37.48
2016-07-11T08:50:42.121Z,37.58
2016-07-11T08:52:42.187Z,37.38
2016-07-11T08:53:42.224Z,37.68
2016-07-11T08:55:42.284Z,35.47
2016-07-11T08:56:42.323Z,35.08
2016-07-11T08:57:42.349Z,34.11
2016-07-11T08:58:42.381Z,34.03
2016-07-11T08:59:42.420Z,33.36
2016-07-11T09:00:42.455Z,33.36
2016-07-11T09:01:42.485Z,34.53
2016-07-11T09:02:42.530Z,35.38
2016-07-11T09:03:57.468Z,35.36
2016-07-11T09:04:55.318Z,35.67
2016-07-11T09:05:42.608Z,35.36
2016-07-11T09:06:42.641Z,35.18
2016-07-11T09:07:42.676Z,34.99
2016-07-11T09:08:42.710Z,34.69
2016-07-11T09:09:42.751Z,35.24
2016-07-11T09:10:42.787Z,35.05
2016-07-11T09:11:42.826Z,34.95
2016-07-11T09:12:42.851Z,33.79
2016-07-11T09:13:42.884Z,33.61
2016-07-11T09:14:42.923Z,32.74
2016-07-11T09:15:42.956Z,32.08
2016-07-11T09:16:42.992Z,31.7
2016-07-11T09:17:43.021Z,31.62
2016-07-11T09:18:43.060Z,30.54
2016-07-11T09:19:58.007Z,30.35
2016-07-11T09:20:43.125Z,30.86
2016-07-11T09:21:43.157Z,29.88
2016-07-11T09:22:43.200Z,29.6
2016-07-11T09:23:43.225Z,28.72
2016-07-11T09:24:43.260Z,28.25
2016-07-11T09:26:43.331Z,28.14
2016-07-11T09:27:43.363Z,29.44
2016-07-11T09:29:43.428Z,26.89
2016-07-11T09:30:43.466Z,27.79
2016-07-11T09:31:43.508Z,27.76
2016-07-11T09:32:43.536Z,27.86
2016-07-11T09:33:43.565Z,27.66
2016-07-11T09:34:43.604Z,28.16
2016-07-11T09:35:58.555Z,28.64
2016-07-11T09:36:43.673Z,28.75
2016-07-11T09:37:43.706Z,28.75
2016-07-11T09:38:43.746Z,28.64
2016-07-11T09:39:43.778Z,30.09
2016-07-11T09:40:43.811Z,29.89
2016-07-11T09:41:43.846Z,29.11
2016-07-11T09:43:43.920Z,29.51
2016-07-11T09:44:43.952Z,30.19
2016-07-11T09:45:43.983Z,30.57
2016-07-11T09:46:44.017Z,30.37
2016-07-11T09:47:44.050Z,31.07
2016-07-11T09:48:44.083Z,32.13
2016-07-11T09:49:44.125Z,32.41
2016-07-11T09:50:44.151Z,30.85
2016-07-11T09:51:59.104Z,31.54
2016-07-11T09:52:44.222Z,31.21
2016-07-11T09:53:44.255Z,31.01
2016-07-11T09:55:44.326Z,32.03
2016-07-11T09:56:44.364Z,30.57
2016-07-11T09:57:44.390Z,29.97
2016-07-11T09:58:44.436Z,30.19
2016-07-11T09:59:44.464Z,29.61
2016-07-11T10:00:44.499Z,30.94
2016-07-11T10:01:44.527Z,30.94
2016-07-11T10:02:44.569Z,31.8
2016-07-11T10:03:44.595Z,31.51
2016-07-11T10:04:44.634Z,32.08
2016-07-11T10:05:44.665Z,32.46
2016-07-11T10:06:59.616Z,32.36
2016-07-11T10:07:44.739Z,31.97
2016-07-11T10:09:44.807Z,34.01
2016-07-11T10:10:44.837Z,32.24
2016-07-11T10:11:44.867Z,31.2
2016-07-11T10:12:44.908Z,31.8
2016-07-11T10:14:44.976Z,30.62
2016-07-11T10:15:45.009Z,30.44
2016-07-11T10:16:45.043Z,30.34
2016-07-11T10:17:45.073Z,29.48
2016-07-11T10:18:45.108Z,29.3
2016-07-11T10:19:45.141Z,29.39
2016-07-11T10:20:45.175Z,28.72
2016-07-11T10:22:45.251Z,29.03
2016-07-11T10:23:45.272Z,28.52
2016-07-11T10:24:45.306Z,29.32
2016-07-11T10:25:45.340Z,29.3
2016-07-11T10:26:45.375Z,29.38
2016-07-11T10:27:45.408Z,30.26
2016-07-11T10:28:45.447Z,29.86
2016-07-11T10:29:45.481Z,30.06
2016-07-11T10:30:45.515Z,29.48
2016-07-11T10:31:45.544Z,30.76
2016-07-11T10:32:45.583Z,31.32
2016-07-11T10:33:45.613Z,30.91
2016-07-11T10:34:45.649Z,30.91
2016-07-11T10:35:45.687Z,30.91
2016-07-11T10:36:45.717Z,29.83
2016-07-11T10:37:45.750Z,30.24
2016-07-11T10:39:00.697Z,30.62
2016-07-11T10:39:45.817Z,31
2016-07-11T10:40:45.855Z,31
2016-07-11T10:41:45.890Z,31.87
2016-07-11T10:42:45.916Z,30.9
2016-07-11T10:44:46.692Z,31.2
2016-07-11T10:45:46.027Z,30.82
2016-07-11T10:46:46.051Z,31.01
2016-07-11T10:47:46.084Z,31.2
2016-07-11T10:48:46.125Z,31.2
2016-07-11T10:49:46.159Z,31.67
2016-07-11T10:50:46.190Z,30.88
2016-07-11T10:51:46.221Z,31.97
2016-07-11T10:52:46.255Z,31.67
2016-07-11T10:53:46.287Z,31.57
2016-07-11T10:55:01.239Z,31.87
2016-07-11T10:55:46.355Z,32.15
2016-07-11T10:56:46.390Z,32.15
2016-07-11T10:57:46.424Z,33.89
2016-07-11T10:58:46.454Z,33.69
2016-07-11T10:59:46.497Z,33.29
2016-07-11T11:00:46.530Z,33.41
2016-07-11T11:01:46.561Z,33.02
2016-07-11T11:02:46.591Z,33.22
2016-07-11T11:03:46.626Z,32.53
2016-07-11T11:04:46.661Z,33.61
2016-07-11T11:05:46.690Z,35.42
2016-07-11T11:06:46.731Z,34.92
2016-07-11T11:07:46.762Z,34.15
2016-07-11T11:08:46.787Z,34.56
2016-07-11T11:09:46.828Z,33.69
2016-07-11T11:11:01.774Z,33.59
2016-07-11T11:11:46.891Z,34.2
2016-07-11T11:12:46.926Z,33.2
2016-07-11T11:13:46.960Z,34
2016-07-11T11:14:46.989Z,34.59
2016-07-11T11:15:47.022Z,33.02
2016-07-11T11:17:47.092Z,33.62
2016-07-11T11:18:47.126Z,32.54
2016-07-11T11:19:47.152Z,33.02
2016-07-11T11:20:47.896Z,33.44
2016-07-11T11:21:47.222Z,33.41
2016-07-11T11:22:47.253Z,32.45
2016-07-11T11:23:47.289Z,33.22
2016-07-11T11:24:47.318Z,32.43
2016-07-11T11:25:47.354Z,32.24
2016-07-11T11:27:02.303Z,32.05
2016-07-11T11:28:47.456Z,32.05
2016-07-11T11:29:47.487Z,32.92
2016-07-11T11:30:47.520Z,31.84
2016-07-11T11:31:47.553Z,32.43
2016-07-11T11:32:47.586Z,32.74
2016-07-11T11:33:47.618Z,33.22
2016-07-11T11:34:47.660Z,32.05
2016-07-11T11:35:47.685Z,32.04
2016-07-11T11:36:47.721Z,33.12
2016-07-11T11:37:47.747Z,32.82
2016-07-11T11:38:47.785Z,32.82
2016-07-11T11:39:47.818Z,33.02
2016-07-11T11:40:47.850Z,32.33
2016-07-11T11:42:02.800Z,31.94
2016-07-11T11:42:47.919Z,33.2
2016-07-11T11:43:48.655Z,34.16
2016-07-11T11:44:47.985Z,32.9
2016-07-11T11:45:48.016Z,34.16
2016-07-11T11:46:48.050Z,34.83
2016-07-11T11:47:48.082Z,33.95
2016-07-11T11:49:48.152Z,34.16
2016-07-11T11:50:48.184Z,34.16
2016-07-11T11:51:48.217Z,34.25
2016-07-11T11:52:48.247Z,35.31
2016-07-11T11:53:48.285Z,35.02
2016-07-11T11:54:48.310Z,35.02
2016-07-11T11:55:48.347Z,35.8
2016-07-11T11:56:48.376Z,35.68
2016-07-11T11:57:48.410Z,35.39
2016-07-11T11:58:48.443Z,35.78
2016-07-11T11:59:48.478Z,35.88
2016-07-11T12:01:48.540Z,35.41
2016-07-11T12:02:48.574Z,35.5
2016-07-11T12:03:48.602Z,34.92
2016-07-11T12:04:48.636Z,34.52
2016-07-11T12:05:48.678Z,34.62
2016-07-11T12:06:48.703Z,33.94
2016-07-11T12:07:48.734Z,34.11
2016-07-11T12:08:48.771Z,34.9
2016-07-11T12:09:48.805Z,35.19
2016-07-11T12:10:48.835Z,35.21
2016-07-11T12:11:48.872Z,34.42
2016-07-11T12:12:49.600Z,34.13
2016-07-11T12:14:03.847Z,33.95
2016-07-11T12:14:48.965Z,33.08
2016-07-11T12:16:49.032Z,33.18
2016-07-11T12:17:49.059Z,33.17
2016-07-11T12:18:49.794Z,33.17
2016-07-11T12:19:49.127Z,33.65
2016-07-11T12:20:49.157Z,32.79
2016-07-11T12:22:49.223Z,34.13
2016-07-11T12:23:49.260Z,33.25
2016-07-11T12:24:49.292Z,33.75
2016-07-11T12:25:49.325Z,33.15
2016-07-11T12:26:49.361Z,33.26
2016-07-11T12:27:49.387Z,33.75
2016-07-11T12:28:49.421Z,33.26
2016-07-11T12:30:04.370Z,32.87
2016-07-11T12:32:49.553Z,31.99
2016-07-11T12:33:49.586Z,32.07
2016-07-11T12:34:49.620Z,31.4
2016-07-11T12:35:49.652Z,31.87
2016-07-11T12:36:49.682Z,32.28
2016-07-11T12:37:49.717Z,32.78
2016-07-11T12:38:49.751Z,32.18
2016-07-11T12:39:49.786Z,32.68
2016-07-11T12:40:49.813Z,32.09
2016-07-11T12:41:49.849Z,32.38
2016-07-11T12:42:49.878Z,32.86
2016-07-11T12:43:49.912Z,32.86
2016-07-11T12:44:49.945Z,33.05
2016-07-11T12:46:04.892Z,33.33
2016-07-11T12:47:50.039Z,34.1
2016-07-11T12:48:50.075Z,34
2016-07-11T12:49:50.100Z,34.2
2016-07-11T12:50:50.141Z,34.1
2016-07-11T12:51:50.173Z,33.92
2016-07-11T12:52:50.205Z,34.59
2016-07-11T12:53:50.235Z,34.3
2016-07-11T12:54:50.265Z,33.9
2016-07-11T12:55:50.298Z,34.1
2016-07-11T12:56:50.330Z,34.49
2016-07-11T12:57:50.366Z,35.06
2016-07-11T12:58:50.407Z,34.47
2016-07-11T12:59:50.426Z,34.3
2016-07-11T13:00:50.463Z,34
2016-07-11T13:02:05.411Z,34.1
2016-07-11T13:02:50.522Z,33.9
2016-07-11T13:03:50.564Z,34.21
2016-07-11T13:04:50.591Z,33.92
2016-07-11T13:05:50.625Z,33.14
2016-07-11T13:06:50.660Z,33.23
2016-07-11T13:07:50.690Z,34.01
2016-07-11T13:08:50.717Z,33.9
2016-07-11T13:09:50.753Z,34.11
2016-07-11T13:10:50.789Z,33.43
2016-07-11T13:11:50.816Z,33.9
2016-07-11T13:12:50.848Z,33.8
2016-07-11T13:13:50.882Z,34
2016-07-11T13:14:50.917Z,33.8
2016-07-11T13:15:50.950Z,33.9
2016-07-11T13:17:05.893Z,33.8
2016-07-11T13:17:51.011Z,33.33
2016-07-11T13:18:51.046Z,33.8
2016-07-11T13:19:51.072Z,33.8
2016-07-11T13:20:51.113Z,34
2016-07-11T13:21:51.137Z,34.77
2016-07-11T13:22:51.174Z,35.35
2016-07-11T13:23:51.208Z,35.73
2016-07-11T13:24:51.235Z,35.63
2016-07-11T13:25:51.267Z,35.25
2016-07-11T13:26:51.299Z,35.16
2016-07-11T13:27:51.335Z,34.94
2016-07-11T13:28:51.366Z,35.35
2016-07-11T13:29:51.396Z,35.65
2016-07-11T13:30:51.434Z,35.44
2016-07-11T13:31:51.466Z,35.25
2016-07-11T13:32:51.499Z,35.55
2016-07-11T13:33:51.527Z,36.33
2016-07-11T13:34:51.564Z,35.85
2016-07-11T13:35:51.596Z,35.53
2016-07-11T13:36:51.625Z,35.73
2016-07-11T13:37:52.654Z,36.41
2016-07-11T13:38:51.688Z,36.8
2016-07-11T13:39:51.724Z,35.93
2016-07-11T13:40:51.749Z,36.61
2016-07-11T13:41:51.787Z,35.93
2016-07-11T13:42:51.826Z,36.49
2016-07-11T13:43:51.847Z,36.59
2016-07-11T13:44:51.880Z,37.85
2016-07-11T13:45:51.913Z,37.63
2016-07-11T13:46:51.945Z,38.61
2016-07-11T13:47:51.989Z,37.73
2016-07-11T13:49:06.933Z,37.45
2016-07-11T13:49:52.041Z,37.06
2016-07-11T13:51:52.103Z,37.16
2016-07-11T13:52:52.140Z,37.35
2016-07-11T13:53:52.165Z,37.26
2016-07-11T13:54:52.203Z,37.18
2016-07-11T13:55:52.233Z,37.35